createdAt,value
2018-10-16T00:01:05.094Z,12.87
2018-10-16T00:04:08.736Z,12.95
2018-10-16T00:07:12.304Z,12.94
2018-10-16T00:10:22.183Z,12.82
2018-10-16T00:13:25.755Z,12.82
2018-10-16T00:16:29.255Z,12.83
2018-10-16T00:19:33.316Z,12.82
2018-10-16T00:22:36.860Z,12.73
2018-10-16T00:25:40.335Z,12.56
2018-10-16T00:28:43.886Z,12.54
2018-10-16T00:31:48.428Z,12.60
2018-10-16T00:34:52.001Z,12.63
2018-10-16T00:37:55.528Z,12.62
2018-10-16T00:40:59.415Z,12.53
2018-10-16T00:44:02.985Z,12.39
2018-10-16T00:47:06.623Z,12.36
2018-10-16T00:50:10.225Z,12.41
2018-10-16T00:53:14.044Z,12.41
2018-10-16T00:56:18.578Z,12.36
2018-10-16T00:59:23.097Z,12.33
2018-10-16T01:02:26.728Z,12.24
2018-10-16T01:05:30.310Z,12.26
2018-10-16T01:08:33.774Z,12.23
2018-10-16T01:11:37.539Z,12.20
2018-10-16T01:14:40.981Z,12.14
2018-10-16T01:17:44.534Z,12.07
2018-10-16T01:20:48.033Z,12.07
2018-10-16T01:23:51.492Z,12.08
2018-10-16T01:26:55.053Z,12.06
2018-10-16T01:29:58.590Z,12.05
2018-10-16T01:33:02.100Z,11.97
2018-10-16T01:36:06.371Z,12.00
2018-10-16T01:39:09.823Z,11.94
2018-10-16T01:42:13.459Z,11.91
2018-10-16T01:45:16.939Z,11.86
2018-10-16T01:48:20.492Z,11.75
2018-10-16T01:51:23.943Z,11.75
2018-10-16T01:54:27.439Z,11.76
2018-10-16T01:57:30.936Z,11.80
2018-10-16T02:00:34.434Z,11.77
2018-10-16T02:03:38.376Z,11.67
2018-10-16T02:06:41.920Z,11.53
2018-10-16T02:09:45.353Z,11.50
2018-10-16T02:12:48.870Z,11.54
2018-10-16T02:15:52.707Z,11.55
2018-10-16T02:18:57.207Z,11.50
2018-10-16T02:22:00.764Z,11.41
2018-10-16T02:25:04.298Z,11.34
2018-10-16T02:28:07.816Z,11.26
2018-10-16T02:31:11.328Z,11.17
2018-10-16T02:34:14.814Z,11.10
2018-10-16T02:37:18.330Z,11.14
2018-10-16T02:40:21.847Z,11.18
2018-10-16T02:43:25.309Z,11.20
2018-10-16T02:46:28.848Z,11.24
2018-10-16T02:49:32.399Z,11.13
2018-10-16T02:52:36.151Z,11.14
2018-10-16T02:55:39.748Z,11.11
2018-10-16T02:58:43.359Z,11.14
2018-10-16T03:01:46.927Z,11.23
2018-10-16T03:04:50.460Z,11.29
2018-10-16T03:07:54.087Z,11.24
2018-10-16T03:10:57.677Z,11.32
2018-10-16T03:14:01.294Z,11.35
2018-10-16T03:17:04.990Z,11.31
2018-10-16T03:20:09.483Z,11.29
2018-10-16T03:23:13.081Z,11.21
2018-10-16T03:26:17.047Z,11.04
2018-10-16T03:29:20.646Z,10.95
2018-10-16T03:32:24.168Z,10.92
2018-10-16T03:35:28.753Z,10.85
2018-10-16T03:38:32.345Z,10.84
2018-10-16T03:41:35.823Z,10.84
2018-10-16T03:44:39.318Z,10.88
2018-10-16T03:47:42.881Z,10.87
2018-10-16T03:50:46.405Z,10.98
2018-10-16T03:53:51.253Z,11.13
2018-10-16T03:56:54.754Z,11.30
2018-10-16T03:59:58.244Z,11.28
2018-10-16T04:03:01.764Z,11.18
2018-10-16T04:06:05.317Z,11.18
2018-10-16T04:09:08.912Z,11.08
2018-10-16T04:12:12.367Z,11.20
2018-10-16T04:15:16.045Z,11.32
2018-10-16T04:18:19.642Z,11.41
2018-10-16T04:21:23.236Z,11.46
2018-10-16T04:24:26.828Z,11.27
2018-10-16T04:27:30.367Z,11.20
2018-10-16T04:30:33.977Z,11.11
2018-10-16T04:33:37.501Z,11.16
2018-10-16T04:36:46.798Z,11.13
2018-10-16T04:39:50.395Z,10.96
2018-10-16T04:42:53.937Z,10.83
2018-10-16T04:45:57.430Z,10.73
2018-10-16T04:49:01.011Z,10.65
2018-10-16T04:52:04.516Z,10.62
2018-10-16T04:55:08.246Z,10.57
2018-10-16T04:58:11.837Z,10.61
2018-10-16T05:01:15.632Z,10.61
2018-10-16T05:04:19.332Z,10.52
2018-10-16T05:07:22.995Z,10.51
2018-10-16T05:10:26.517Z,10.54
2018-10-16T05:13:30.153Z,10.70
2018-10-16T05:16:33.672Z,10.87
2018-10-16T05:19:39.392Z,10.81
2018-10-16T05:22:43.247Z,10.54
2018-10-16T05:25:46.831Z,10.14
2018-10-16T05:28:50.335Z,9.84
2018-10-16T05:31:53.933Z,9.66
2018-10-16T05:34:57.450Z,9.87
2018-10-16T05:38:00.961Z,10.07
2018-10-16T05:41:04.586Z,10.18
2018-10-16T05:44:08.336Z,10.41
2018-10-16T05:47:11.804Z,10.53
2018-10-16T05:50:15.316Z,10.51
2018-10-16T05:53:18.859Z,10.48
2018-10-16T05:56:22.381Z,10.42
2018-10-16T05:59:25.945Z,10.45
2018-10-16T06:02:29.510Z,10.54
2018-10-16T06:05:33.177Z,10.56
2018-10-16T06:08:36.684Z,10.68
2018-10-16T06:11:40.172Z,10.67
2018-10-16T06:14:43.668Z,10.61
2018-10-16T06:17:47.165Z,10.56
2018-10-16T06:20:50.703Z,10.51
2018-10-16T06:23:54.309Z,10.63
2018-10-16T06:26:57.747Z,10.85
2018-10-16T06:30:01.380Z,11.07
2018-10-16T06:33:05.048Z,11.02
2018-10-16T06:36:08.563Z,10.96
2018-10-16T06:39:12.131Z,10.99
2018-10-16T06:42:15.592Z,11.06
2018-10-16T06:45:19.149Z,11.09
2018-10-16T06:48:22.869Z,11.23
2018-10-16T06:51:26.100Z,11.32
2018-10-16T06:54:29.581Z,11.39
2018-10-16T06:57:33.197Z,11.54
2018-10-16T07:00:36.733Z,11.68
2018-10-16T07:03:40.276Z,11.76
2018-10-16T07:06:43.838Z,11.93
2018-10-16T07:09:47.331Z,12.06
2018-10-16T07:12:50.807Z,12.15
2018-10-16T07:15:54.313Z,12.29
2018-10-16T07:18:57.822Z,12.40
2018-10-16T07:22:01.709Z,12.42
2018-10-16T07:25:06.575Z,12.53
2018-10-16T07:28:10.210Z,12.59
2018-10-16T07:31:13.741Z,12.72
2018-10-16T07:34:17.410Z,12.88
2018-10-16T07:37:20.870Z,12.97
2018-10-16T07:40:24.427Z,13.07
2018-10-16T07:43:27.861Z,13.04
2018-10-16T07:46:31.220Z,13.09
2018-10-16T07:49:34.703Z,13.16
2018-10-16T07:52:38.233Z,13.26
2018-10-16T07:55:41.714Z,13.32
2018-10-16T07:58:45.222Z,13.26
2018-10-16T08:01:48.708Z,13.30
2018-10-16T08:04:52.251Z,13.48
2018-10-16T08:07:55.684Z,13.58
2018-10-16T08:10:59.295Z,13.59
2018-10-16T08:14:02.799Z,13.63
2018-10-16T08:17:06.446Z,13.67
2018-10-16T08:20:09.994Z,13.75
2018-10-16T08:23:13.521Z,13.93
2018-10-16T08:26:17.052Z,14.12
2018-10-16T08:29:20.554Z,14.23
2018-10-16T08:32:24.122Z,14.33
2018-10-16T08:35:27.659Z,14.40
2018-10-16T08:39:40.742Z,14.47
2018-10-16T08:42:57.938Z,14.61
2018-10-16T08:46:12.785Z,14.74
2018-10-16T08:49:27.511Z,14.94
2018-10-16T08:52:30.947Z,15.32
2018-10-16T08:55:35.033Z,15.43
2018-10-16T08:58:38.517Z,15.51
2018-10-16T09:01:42.276Z,15.67
2018-10-16T09:04:45.720Z,15.83
2018-10-16T09:07:49.148Z,16.02
2018-10-16T09:10:52.712Z,15.97
2018-10-16T09:13:56.658Z,15.95
2018-10-16T09:17:00.112Z,15.97
2018-10-16T09:20:03.748Z,16.08
2018-10-16T09:23:07.793Z,16.35
2018-10-16T09:26:11.329Z,16.79
2018-10-16T09:29:14.982Z,16.96
2018-10-16T09:32:18.457Z,16.97
2018-10-16T09:35:22.002Z,17.06
2018-10-16T09:38:25.361Z,17.21
2018-10-16T09:41:28.867Z,17.56
2018-10-16T09:44:32.283Z,17.78
2018-10-16T09:47:35.764Z,18.10
2018-10-16T09:50:39.207Z,18.28
2018-10-16T09:53:42.668Z,18.28
2018-10-16T09:56:46.133Z,18.03
2018-10-16T09:59:49.678Z,17.90
2018-10-16T10:02:53.138Z,18.13
2018-10-16T10:05:56.736Z,18.56
2018-10-16T10:09:00.387Z,18.94
2018-10-16T10:12:03.848Z,19.14
2018-10-16T10:15:07.762Z,19.27
2018-10-16T10:18:11.368Z,19.32
2018-10-16T10:21:14.882Z,19.32
2018-10-16T10:24:18.370Z,19.34
2018-10-16T10:27:21.974Z,19.30
2018-10-16T10:30:25.578Z,19.34
2018-10-16T10:33:29.011Z,19.03
2018-10-16T10:36:32.530Z,18.94
2018-10-16T10:39:36.188Z,19.02
2018-10-16T10:42:39.719Z,19.44
2018-10-16T10:45:43.321Z,19.73
2018-10-16T10:48:46.871Z,19.60
2018-10-16T10:51:50.402Z,19.38
2018-10-16T10:54:53.843Z,19.44
2018-10-16T10:57:57.404Z,19.59
2018-10-16T11:01:01.148Z,19.96
2018-10-16T11:04:05.236Z,20.10
2018-10-16T11:07:08.978Z,20.06
2018-10-16T11:10:13.806Z,19.94
2018-10-16T11:13:17.390Z,19.97
2018-10-16T11:16:22.898Z,19.87
2018-10-16T11:19:26.505Z,20.28
2018-10-16T11:22:30.139Z,20.35
2018-10-16T11:25:33.674Z,20.51
2018-10-16T11:28:37.282Z,20.90
2018-10-16T11:31:40.967Z,21.03
2018-10-16T11:34:44.511Z,20.87
2018-10-16T11:37:48.020Z,21.31
2018-10-16T11:40:51.641Z,21.55
2018-10-16T11:43:55.400Z,21.72
2018-10-16T11:46:59.103Z,21.54
2018-10-16T11:50:02.709Z,21.39
2018-10-16T11:53:06.379Z,21.56
2018-10-16T11:56:10.068Z,21.71
2018-10-16T11:59:13.705Z,21.84
2018-10-16T12:02:17.243Z,21.78
2018-10-16T12:05:20.857Z,21.80
2018-10-16T12:08:24.454Z,21.95
2018-10-16T12:11:28.035Z,21.93
2018-10-16T12:14:31.695Z,22.00
2018-10-16T12:17:44.579Z,22.05
2018-10-16T12:20:51.149Z,22.07
2018-10-16T12:23:54.744Z,22.09
2018-10-16T12:26:58.204Z,22.17
2018-10-16T12:30:01.767Z,22.21
2018-10-16T12:33:05.408Z,22.41
2018-10-16T12:36:09.070Z,22.41
2018-10-16T12:39:13.530Z,22.50
2018-10-16T12:42:16.974Z,22.52
2018-10-16T12:45:20.491Z,22.63
2018-10-16T12:48:24.057Z,22.74
2018-10-16T12:51:27.653Z,22.72
2018-10-16T12:54:31.170Z,22.66
2018-10-16T12:57:34.688Z,22.72
2018-10-16T13:00:38.154Z,22.74
2018-10-16T13:03:41.665Z,22.79
2018-10-16T13:06:45.390Z,22.78
2018-10-16T13:09:49.003Z,22.84
2018-10-16T13:12:52.563Z,22.79
2018-10-16T13:15:56.089Z,22.89
2018-10-16T13:18:59.538Z,22.89
2018-10-16T13:22:04.074Z,22.98
2018-10-16T13:25:09.306Z,22.98
2018-10-16T13:28:12.941Z,23.03
2018-10-16T13:31:16.334Z,23.03
2018-10-16T13:34:20.230Z,23.08
2018-10-16T13:37:23.970Z,23.19
2018-10-16T13:40:27.499Z,23.28
2018-10-16T13:43:30.999Z,23.25
2018-10-16T13:46:34.575Z,23.37
2018-10-16T13:49:38.150Z,23.33
2018-10-16T13:52:41.796Z,23.38
2018-10-16T13:55:45.354Z,23.44
2018-10-16T13:58:48.835Z,23.47
2018-10-16T14:01:52.335Z,23.52
2018-10-16T14:04:55.861Z,23.59
2018-10-16T14:07:59.346Z,23.68
2018-10-16T14:11:02.891Z,23.93
2018-10-16T14:14:06.590Z,24.00
2018-10-16T14:17:10.261Z,24.06
2018-10-16T14:20:13.884Z,24.06
2018-10-16T14:23:17.214Z,24.19
2018-10-16T14:26:20.773Z,24.17
2018-10-16T14:29:24.250Z,23.97
2018-10-16T14:32:27.880Z,24.01
2018-10-16T14:35:31.368Z,23.85
2018-10-16T14:38:34.864Z,23.75
2018-10-16T14:41:38.359Z,23.63
2018-10-16T14:44:42.028Z,23.60
2018-10-16T14:47:45.431Z,23.64
2018-10-16T14:50:48.966Z,23.61
2018-10-16T14:53:52.502Z,23.35
2018-10-16T14:56:55.984Z,23.20
2018-10-16T14:59:59.575Z,23.08
2018-10-16T15:03:03.148Z,23.05
2018-10-16T15:06:06.740Z,23.04
2018-10-16T15:09:10.800Z,22.99
2018-10-16T15:12:14.324Z,22.94
2018-10-16T15:15:17.871Z,22.88
2018-10-16T15:18:21.356Z,22.82
2018-10-16T15:21:25.863Z,22.81
2018-10-16T15:24:29.370Z,22.79
2018-10-16T15:27:32.928Z,22.76
2018-10-16T15:30:36.449Z,22.64
2018-10-16T15:33:39.998Z,22.56
2018-10-16T15:36:43.451Z,22.52
2018-10-16T15:39:46.928Z,22.54
2018-10-16T15:42:50.383Z,22.64
2018-10-16T15:45:53.962Z,22.65
2018-10-16T15:48:57.573Z,22.65
2018-10-16T15:52:01.157Z,22.58
2018-10-16T15:55:05.109Z,22.57
2018-10-16T15:58:08.755Z,22.54
2018-10-16T16:01:12.326Z,22.50
2018-10-16T16:04:15.865Z,22.38
2018-10-16T16:07:19.431Z,22.28
2018-10-16T16:10:23.092Z,22.23
2018-10-16T16:13:27.056Z,22.22
2018-10-16T16:16:30.720Z,22.14
2018-10-16T16:19:34.234Z,22.05
2018-10-16T16:22:37.969Z,21.94
2018-10-16T16:25:41.659Z,21.80
2018-10-16T16:28:45.290Z,21.72
2018-10-16T16:31:48.915Z,21.61
2018-10-16T16:34:52.470Z,21.44
2018-10-16T16:37:56.154Z,21.28
2018-10-16T16:40:59.688Z,21.22
2018-10-16T16:44:03.741Z,21.15
2018-10-16T16:47:07.295Z,21.05
2018-10-16T16:50:11.995Z,20.95
2018-10-16T16:53:15.692Z,20.89
2018-10-16T16:56:19.239Z,20.77
2018-10-16T16:59:22.814Z,20.69
2018-10-16T17:02:26.412Z,20.62
2018-10-16T17:05:29.910Z,20.46
2018-10-16T17:08:33.396Z,20.25
2018-10-16T17:11:36.951Z,20.09
2018-10-16T17:14:40.397Z,19.93
2018-10-16T17:17:44.762Z,19.90
2018-10-16T17:20:48.234Z,19.87
2018-10-16T17:23:51.892Z,19.86
2018-10-16T17:26:55.478Z,19.84
2018-10-16T17:29:59.118Z,19.73
2018-10-16T17:33:02.675Z,19.66
2018-10-16T17:36:06.212Z,19.57
2018-10-16T17:39:10.959Z,19.41
2018-10-16T17:42:14.385Z,19.30
2018-10-16T17:45:17.901Z,19.22
2018-10-16T17:48:21.386Z,19.19
2018-10-16T17:51:24.875Z,19.16
2018-10-16T17:54:28.677Z,19.12
2018-10-16T17:57:32.249Z,18.98
2018-10-16T18:00:35.776Z,18.79
2018-10-16T18:03:39.411Z,18.72
2018-10-16T18:06:42.982Z,18.72
2018-10-16T18:09:46.536Z,18.72
2018-10-16T18:12:50.096Z,18.63
2018-10-16T18:15:53.820Z,18.55
2018-10-16T18:18:57.324Z,18.44
2018-10-16T18:22:00.881Z,18.47
2018-10-16T18:25:04.658Z,18.41
2018-10-16T18:28:08.225Z,18.44
2018-10-16T18:31:11.753Z,18.42
2018-10-16T18:34:15.268Z,18.33
2018-10-16T18:37:18.730Z,18.14
2018-10-16T18:40:22.129Z,18.13
2018-10-16T18:43:25.883Z,18.06
2018-10-16T18:46:29.549Z,17.95
2018-10-16T18:49:33.106Z,17.96
2018-10-16T18:52:36.567Z,17.81
2018-10-16T18:55:40.124Z,17.69
2018-10-16T18:58:43.622Z,17.52
2018-10-16T19:01:47.215Z,17.52
2018-10-16T19:04:50.760Z,17.65
2018-10-16T19:07:55.417Z,17.72
2018-10-16T19:10:59.132Z,17.67
2018-10-16T19:14:02.803Z,17.59
2018-10-16T19:17:06.323Z,17.38
2018-10-16T19:20:11.352Z,17.37
2018-10-16T19:23:14.987Z,17.35
2018-10-16T19:26:18.520Z,17.35
2018-10-16T19:29:22.096Z,17.30
2018-10-16T19:32:25.629Z,17.33
2018-10-16T19:35:29.336Z,17.29
2018-10-16T19:38:32.805Z,17.24
2018-10-16T19:41:36.635Z,17.23
2018-10-16T19:44:40.139Z,17.11
2018-10-16T19:47:43.652Z,16.86
2018-10-16T19:50:47.127Z,16.86
2018-10-16T19:53:50.590Z,16.69
2018-10-16T19:56:55.086Z,16.62
2018-10-16T19:59:58.678Z,16.52
2018-10-16T20:03:02.045Z,16.52
2018-10-16T20:06:05.591Z,16.44
2018-10-16T20:09:10.684Z,16.30
2018-10-16T20:12:14.266Z,16.26
2018-10-16T20:15:18.737Z,16.24
2018-10-16T20:18:22.478Z,16.19
2018-10-16T20:21:25.948Z,16.19
2018-10-16T20:24:29.431Z,16.11
2018-10-16T20:27:33.107Z,15.99
2018-10-16T20:30:37.538Z,15.95
2018-10-16T20:33:41.110Z,15.86
2018-10-16T20:36:44.547Z,15.77
2018-10-16T20:39:47.943Z,15.73
2018-10-16T20:42:51.368Z,15.65
2018-10-16T20:45:54.910Z,15.64
2018-10-16T20:48:58.371Z,15.64
2018-10-16T20:52:01.877Z,15.57
2018-10-16T20:55:05.850Z,15.36
2018-10-16T20:58:09.215Z,15.16
2018-10-16T21:01:14.096Z,15.18
2018-10-16T21:04:17.569Z,15.13
2018-10-16T21:07:21.086Z,15.15
2018-10-16T21:10:24.414Z,15.14
2018-10-16T21:13:27.807Z,15.09
2018-10-16T21:16:31.221Z,15.07
2018-10-16T21:19:34.641Z,14.97
2018-10-16T21:22:37.996Z,14.86
2018-10-16T21:25:41.403Z,14.75
2018-10-16T21:28:44.792Z,14.84
2018-10-16T21:31:48.243Z,14.86
2018-10-16T21:34:51.732Z,14.82
2018-10-16T21:37:55.213Z,14.75
2018-10-16T21:40:58.681Z,14.66
2018-10-16T21:44:02.126Z,14.65
2018-10-16T21:47:05.781Z,14.66
2018-10-16T21:50:09.362Z,14.65
2018-10-16T21:53:13.018Z,14.64
2018-10-16T21:56:16.515Z,14.63
2018-10-16T21:59:20.306Z,14.61
2018-10-16T22:02:29.523Z,14.64
2018-10-16T22:05:32.993Z,14.51
2018-10-16T22:08:36.479Z,14.38
2018-10-16T22:11:39.994Z,14.30
2018-10-16T22:14:43.498Z,14.26
2018-10-16T22:17:47.171Z,14.27
2018-10-16T22:20:50.712Z,14.24
2018-10-16T22:23:54.246Z,14.29
2018-10-16T22:26:57.749Z,14.30
2018-10-16T22:30:01.514Z,14.26
2018-10-16T22:33:05.716Z,14.19
2018-10-16T22:36:09.232Z,14.09
2018-10-16T22:39:12.750Z,14.03
2018-10-16T22:42:16.252Z,13.96
2018-10-16T22:45:21.374Z,13.88
2018-10-16T22:48:24.887Z,13.83
2018-10-16T22:51:28.387Z,13.76
2018-10-16T22:54:31.978Z,13.75
2018-10-16T22:57:35.634Z,13.70
2018-10-16T23:00:39.143Z,13.75
2018-10-16T23:03:42.687Z,13.73
2018-10-16T23:06:46.231Z,13.70
2018-10-16T23:09:49.701Z,13.68
2018-10-16T23:12:58.519Z,13.64
2018-10-16T23:16:02.061Z,13.73
2018-10-16T23:19:06.017Z,13.69
2018-10-16T23:22:09.448Z,13.56
2018-10-16T23:25:13.005Z,13.44
2018-10-16T23:28:16.519Z,13.46
2018-10-16T23:31:19.990Z,13.45
2018-10-16T23:34:24.510Z,13.37
2018-10-16T23:37:28.018Z,13.34
2018-10-16T23:40:31.513Z,13.38
2018-10-16T23:43:35.358Z,13.33
2018-10-16T23:46:38.916Z,13.42
2018-10-16T23:49:42.504Z,13.40
2018-10-16T23:52:48.026Z,13.31
2018-10-16T23:55:51.464Z,13.20
2018-10-16T23:58:54.992Z,13.19
